Time;durP1;ratioP1;P1;durP2;ratioP2;P2;SDS_P1;SDS_P2;PMS_P1;PMS_P2;Temp;Humidity;BMP_temperature;BMP_pressure;BME280_temperature;BME280_humidity;BME280_pressure;Samples;Min_cycle;Max_cycle;Signal;HPM_P1;HPM_P2
2022/04/21 00:03:04;;;;;;;1.60;1.50;;;;;;;;;;12626433;23;20264;-69
2022/04/21 00:08:05;;;;;;;4.82;1.67;;;;;;;;;;12665432;23;20185;-68
2022/04/21 00:13:07;;;;;;;2.00;1.90;;;;;;;;;;12663312;23;20199;-69
2022/04/21 00:18:08;;;;;;;1.73;1.58;;;;;;;;;;12664429;23;20209;-69
2022/04/21 00:23:27;;;;;;;1.70;1.55;;;;;;;;;;12638144;23;20264;-69
2022/04/21 00:28:28;;;;;;;1.70;1.70;;;;;;;;;;12659409;23;20184;-69
2022/04/21 00:33:31;;;;;;;1.65;1.63;;;;;;;;;;12648774;23;20204;-67
2022/04/21 00:38:32;;;;;;;1.98;1.92;;;;;;;;;;12638069;23;20200;-68
2022/04/21 00:43:34;;;;;;;2.35;1.70;;;;;;;;;;12663589;23;20197;-69
2022/04/21 00:48:35;;;;;;;2.10;1.90;;;;;;;;;;12638225;23;20193;-70
2022/04/21 00:53:37;;;;;;;3.33;2.00;;;;;;;;;;12661938;23;20196;-69
2022/04/21 00:58:39;;;;;;;2.35;1.88;;;;;;;;;;12651827;23;20204;-69
2022/04/21 01:03:41;;;;;;;2.13;2.00;;;;;;;;;;12660611;23;20279;-69
2022/04/21 01:08:42;;;;;;;1.90;1.90;;;;;;;;;;12661610;23;20188;-69
2022/04/21 01:13:43;;;;;;;1.95;1.85;;;;;;;;;;12658281;23;20189;-69
2022/04/21 01:18:44;;;;;;;4.15;2.20;;;;;;;;;;12660019;23;20201;-69
2022/04/21 01:23:45;;;;;;;2.35;2.08;;;;;;;;;;12636001;23;20623;-69
2022/04/21 01:28:47;;;;;;;4.07;2.13;;;;;;;;;;12650320;23;20177;-69
2022/04/21 01:33:48;;;;;;;1.92;1.83;;;;;;;;;;12659445;23;20532;-68
2022/04/21 01:44:09;;;;;;;2.53;2.38;;;;;;;;;;12662423;23;20201;-69
2022/04/21 01:49:10;;;;;;;2.30;1.73;;;;;;;;;;12662971;23;20177;-66
2022/04/21 01:54:11;;;;;;;2.90;2.10;;;;;;;;;;12647877;23;20728;-68
2022/04/21 01:59:12;;;;;;;2.35;2.15;;;;;;;;;;12636808;23;20271;-68
2022/04/21 02:04:13;;;;;;;2.50;2.30;;;;;;;;;;12659002;23;20207;-69
2022/04/21 02:09:14;;;;;;;2.60;2.45;;;;;;;;;;12660659;23;20594;-69
2022/04/21 02:14:16;;;;;;;2.53;2.40;;;;;;;;;;12660369;23;20657;-68
2022/04/21 02:19:17;;;;;;;2.65;2.30;;;;;;;;;;12649161;23;20204;-69
2022/04/21 02:24:18;;;;;;;2.63;2.53;;;;;;;;;;12635590;23;20204;-69
2022/04/21 02:29:19;;;;;;;2.50;2.30;;;;;;;;;;12634948;23;20192;-69
2022/04/21 02:34:20;;;;;;;2.80;2.60;;;;;;;;;;12659883;23;20216;-69
2022/04/21 02:39:21;;;;;;;3.88;2.35;;;;;;;;;;12661957;23;20193;-69
2022/04/21 02:44:23;;;;;;;3.20;2.42;;;;;;;;;;12660261;23;20193;-69
2022/04/21 02:49:25;;;;;;;4.88;3.10;;;;;;;;;;12649013;23;20244;-69
2022/04/21 02:59:46;;;;;;;1.83;1.73;;;;;;;;;;12660907;23;20204;-68
2022/04/21 03:04:47;;;;;;;3.47;2.63;;;;;;;;;;12657799;23;20199;-69
2022/04/21 03:09:53;;;;;;;3.53;2.75;;;;;;;;;;12660571;23;20516;-68
2022/04/21 03:14:55;;;;;;;2.97;2.47;;;;;;;;;;12648468;23;20185;-69
2022/04/21 03:19:56;;;;;;;2.85;2.65;;;;;;;;;;12640099;23;20785;-69
2022/04/21 03:25:04;;;;;;;3.63;2.40;;;;;;;;;;12664925;23;20499;-69
2022/04/21 03:30:06;;;;;;;2.90;2.42;;;;;;;;;;12665714;23;20189;-68
2022/04/21 03:35:08;;;;;;;3.25;2.72;;;;;;;;;;12662905;23;20209;-68
2022/04/21 03:40:09;;;;;;;2.20;2.10;;;;;;;;;;12648516;23;20332;-69
2022/04/21 03:45:10;;;;;;;2.72;2.15;;;;;;;;;;12663080;23;20196;-65
2022/04/21 03:50:11;;;;;;;3.22;2.67;;;;;;;;;;12664870;23;20642;-68
2022/04/21 03:55:12;;;;;;;10.20;3.08;;;;;;;;;;12664313;23;20177;-68
2022/04/21 04:00:13;;;;;;;6.95;3.00;;;;;;;;;;12638852;23;20238;-68
2022/04/21 04:05:14;;;;;;;3.58;3.05;;;;;;;;;;12661724;23;20581;-68
2022/04/21 04:15:36;;;;;;;5.18;2.95;;;;;;;;;;12662786;23;20191;-67
2022/04/21 04:20:37;;;;;;;3.17;2.85;;;;;;;;;;12662939;23;20248;-69
2022/04/21 04:25:38;;;;;;;2.83;2.63;;;;;;;;;;12661594;23;20189;-68
2022/04/21 04:30:39;;;;;;;3.35;2.40;;;;;;;;;;12662004;23;20246;-69
2022/04/21 04:35:40;;;;;;;3.72;3.38;;;;;;;;;;12649225;23;20184;-69
2022/04/21 04:40:41;;;;;;;3.85;3.08;;;;;;;;;;12635743;23;20284;-69
2022/04/21 04:51:02;;;;;;;4.97;3.28;;;;;;;;;;12662462;23;20177;-70
2022/04/21 04:56:03;;;;;;;6.25;3.00;;;;;;;;;;12635727;23;20181;-70
2022/04/21 05:01:04;;;;;;;6.97;3.22;;;;;;;;;;12649242;23;20220;-70
2022/04/21 05:06:05;;;;;;;7.65;3.85;;;;;;;;;;12662459;23;20519;-70
2022/04/21 05:11:06;;;;;;;4.93;3.30;;;;;;;;;;12660520;23;20183;-70
2022/04/21 05:16:07;;;;;;;3.72;3.33;;;;;;;;;;12661880;23;20706;-70
2022/04/21 05:21:08;;;;;;;6.43;3.33;;;;;;;;;;12657292;23;20196;-71
2022/04/21 05:26:09;;;;;;;4.43;3.15;;;;;;;;;;12653194;23;20186;-71
2022/04/21 05:31:11;;;;;;;5.53;3.92;;;;;;;;;;12651826;23;20208;-70
2022/04/21 05:36:12;;;;;;;3.97;3.53;;;;;;;;;;12657798;23;20173;-71
2022/04/21 05:41:18;;;;;;;5.50;3.65;;;;;;;;;;12658484;23;20201;-70
2022/04/21 05:46:19;;;;;;;4.45;4.00;;;;;;;;;;12658423;23;20184;-70
2022/04/21 05:51:21;;;;;;;3.70;3.45;;;;;;;;;;12660508;23;20184;-71
2022/04/21 05:56:22;;;;;;;6.93;3.90;;;;;;;;;;12651345;23;20216;-71
2022/04/21 06:01:24;;;;;;;3.78;3.47;;;;;;;;;;12659876;23;20521;-71
2022/04/21 06:06:25;;;;;;;4.22;3.33;;;;;;;;;;12661255;23;20283;-71
2022/04/21 06:11:27;;;;;;;8.40;4.00;;;;;;;;;;12660955;23;20185;-71
2022/04/21 06:16:28;;;;;;;4.55;3.78;;;;;;;;;;12661656;23;20266;-71
2022/04/21 06:21:29;;;;;;;5.22;4.35;;;;;;;;;;12651876;23;20248;-71
2022/04/21 06:26:30;;;;;;;4.45;3.83;;;;;;;;;;12630548;23;20199;-70
2022/04/21 06:31:32;;;;;;;9.18;4.30;;;;;;;;;;12658786;23;20753;-71
2022/04/21 06:36:33;;;;;;;4.28;3.97;;;;;;;;;;12660268;23;20173;-70
2022/04/21 06:41:34;;;;;;;4.47;4.13;;;;;;;;;;12656783;23;20197;-70
2022/04/21 06:51:55;;;;;;;4.82;3.92;;;;;;;;;;12658432;23;20176;-70
2022/04/21 06:56:56;;;;;;;5.47;4.82;;;;;;;;;;12657659;23;20302;-71
2022/04/21 07:01:57;;;;;;;6.32;4.47;;;;;;;;;;12655594;23;20209;-69
2022/04/21 07:06:58;;;;;;;6.55;4.32;;;;;;;;;;12660176;23;20183;-71
2022/04/21 07:12:00;;;;;;;13.43;4.18;;;;;;;;;;12660035;23;20240;-71
2022/04/21 07:17:01;;;;;;;7.10;3.88;;;;;;;;;;12647045;23;20244;-71
2022/04/21 07:22:02;;;;;;;4.53;3.88;;;;;;;;;;12661138;23;20242;-71
2022/04/21 07:27:03;;;;;;;11.32;4.22;;;;;;;;;;12635816;23;20195;-72
2022/04/21 07:32:04;;;;;;;7.25;3.67;;;;;;;;;;12633605;23;20239;-72
2022/04/21 07:37:06;;;;;;;4.35;3.60;;;;;;;;;;12632960;23;20188;-72
2022/04/21 07:42:16;;;;;;;5.10;4.00;;;;;;;;;;12659845;23;20251;-72
2022/04/21 07:47:17;;;;;;;7.72;4.28;;;;;;;;;;12647891;23;20908;-72
2022/04/21 07:57:45;;;;;;;8.32;4.18;;;;;;;;;;12660371;23;20275;-72
2022/04/21 08:02:47;;;;;;;5.85;4.05;;;;;;;;;;12660296;23;20197;-72
2022/04/21 08:07:48;;;;;;;5.50;3.78;;;;;;;;;;12665179;23;20216;-71
2022/04/21 08:12:51;;;;;;;6.78;3.50;;;;;;;;;;12653046;23;20191;-72
2022/04/21 08:17:52;;;;;;;4.43;3.83;;;;;;;;;;12665440;23;20239;-72
2022/04/21 08:22:54;;;;;;;4.45;3.55;;;;;;;;;;12660399;23;20181;-71
2022/04/21 08:33:15;;;;;;;8.60;4.43;;;;;;;;;;12639179;23;20292;-71
2022/04/21 08:38:16;;;;;;;5.38;3.67;;;;;;;;;;12650235;23;20272;-72
2022/04/21 08:43:18;;;;;;;4.35;4.05;;;;;;;;;;12658934;23;20319;-72
2022/04/21 08:48:19;;;;;;;6.20;3.80;;;;;;;;;;12659995;23;20689;-71
2022/04/21 08:53:21;;;;;;;4.45;3.50;;;;;;;;;;12661037;23;20189;-72
2022/04/21 08:58:22;;;;;;;5.63;3.60;;;;;;;;;;12663480;23;20201;-71
2022/04/21 09:03:24;;;;;;;5.15;3.60;;;;;;;;;;12662580;23;20212;-71
2022/04/21 09:08:28;;;;;;;7.43;3.63;;;;;;;;;;12651492;23;20192;-71
2022/04/21 09:13:42;;;;;;;7.80;4.03;;;;;;;;;;12662216;23;20188;-71
2022/04/21 09:18:43;;;;;;;6.90;3.65;;;;;;;;;;12663533;23;20647;-71
2022/04/21 09:23:46;;;;;;;18.55;8.43;;;;;;;;;;12661056;23;20308;-71
2022/04/21 09:28:57;;;;;;;8.75;4.45;;;;;;;;;;12662047;23;20242;-70
2022/04/21 09:33:58;;;;;;;5.15;4.10;;;;;;;;;;12647170;23;20243;-71
2022/04/21 09:39:03;;;;;;;4.45;3.58;;;;;;;;;;12660611;23;20315;-71
2022/04/21 09:46:07;;;;;;;4.90;3.33;;;;;;;;;;12609187;23;20200;-71
2022/04/21 09:49:41;;;;;;;5.38;3.38;;;;;;;;;;12657904;23;20187;-71
2022/04/21 09:54:45;;;;;;;6.53;3.45;;;;;;;;;;12660423;23;20180;-71
2022/04/21 09:59:46;;;;;;;3.63;3.40;;;;;;;;;;12658037;23;20193;-71
2022/04/21 10:04:48;;;;;;;4.28;3.53;;;;;;;;;;12646728;23;20552;-70
2022/04/21 10:09:50;;;;;;;4.43;3.60;;;;;;;;;;12657816;23;20185;-71
2022/04/21 10:14:52;;;;;;;6.18;3.85;;;;;;;;;;12656110;23;20204;-71
2022/04/21 10:19:53;;;;;;;4.95;3.60;;;;;;;;;;12659959;23;20205;-71
2022/04/21 10:24:56;;;;;;;4.50;3.40;;;;;;;;;;12661562;23;20173;-70
2022/04/21 10:29:57;;;;;;;6.18;3.22;;;;;;;;;;12647003;23;20189;-71
2022/04/21 10:34:59;;;;;;;3.63;3.30;;;;;;;;;;12660296;23;20219;-72
2022/04/21 10:40:09;;;;;;;4.35;3.67;;;;;;;;;;12661005;23;20658;-70
2022/04/21 10:45:13;;;;;;;6.22;3.72;;;;;;;;;;12659251;23;20205;-70
2022/04/21 10:50:19;;;;;;;8.40;3.70;;;;;;;;;;12662457;23;20234;-70
2022/04/21 11:00:40;;;;;;;3.58;3.10;;;;;;;;;;12658030;23;20279;-71
2022/04/21 11:05:41;;;;;;;7.63;4.10;;;;;;;;;;12659224;23;20193;-72
2022/04/21 11:10:43;;;;;;;4.72;3.70;;;;;;;;;;12660258;23;20284;-71
2022/04/21 11:15:45;;;;;;;5.30;3.58;;;;;;;;;;12659511;23;20251;-71
2022/04/21 11:20:50;;;;;;;3.80;3.53;;;;;;;;;;12660368;23;20197;-71
2022/04/21 11:25:52;;;;;;;6.13;3.67;;;;;;;;;;12648186;23;20333;-70
2022/04/21 11:31:00;;;;;;;10.27;3.53;;;;;;;;;;12658293;23;20201;-71
2022/04/21 11:36:04;;;;;;;6.22;4.00;;;;;;;;;;12659656;23;20213;-71
2022/04/21 11:41:07;;;;;;;7.57;3.85;;;;;;;;;;12663405;23;20256;-71
2022/04/21 11:46:11;;;;;;;8.50;3.33;;;;;;;;;;12662418;23;20176;-71
2022/04/21 11:51:12;;;;;;;3.90;3.50;;;;;;;;;;12650395;23;20188;-70
2022/04/21 11:56:16;;;;;;;3.67;2.95;;;;;;;;;;12660122;23;20184;-70
2022/04/21 12:06:39;;;;;;;4.38;3.72;;;;;;;;;;12660873;23;20181;-70
2022/04/21 12:11:40;;;;;;;3.90;3.60;;;;;;;;;;12663896;23;20699;-71
2022/04/21 12:16:43;;;;;;;4.50;3.42;;;;;;;;;;12661800;23;20648;-71
2022/04/21 12:21:45;;;;;;;6.30;3.65;;;;;;;;;;12650232;23;20207;-71
2022/04/21 12:26:53;;;;;;;4.70;3.47;;;;;;;;;;12663030;23;20173;-70
2022/04/21 12:31:55;;;;;;;3.65;3.35;;;;;;;;;;12661510;23;20197;-71
2022/04/21 12:36:58;;;;;;;9.00;3.92;;;;;;;;;;12661039;23;20176;-71
2022/04/21 12:42:01;;;;;;;4.00;3.67;;;;;;;;;;12660554;23;20734;-71
2022/04/21 12:47:03;;;;;;;4.05;3.60;;;;;;;;;;12661116;23;20499;-70
2022/04/21 12:52:04;;;;;;;6.45;3.72;;;;;;;;;;12663030;23;20185;-70
2022/04/21 12:57:07;;;;;;;4.75;3.75;;;;;;;;;;12659514;23;20185;-70
2022/04/21 13:02:09;;;;;;;4.82;4.22;;;;;;;;;;12661422;23;20205;-70
2022/04/21 13:07:10;;;;;;;5.53;4.30;;;;;;;;;;12662693;23;20185;-70
2022/04/21 13:12:11;;;;;;;6.10;4.05;;;;;;;;;;12661629;23;20184;-67
2022/04/21 13:17:12;;;;;;;4.15;3.58;;;;;;;;;;12635760;23;20192;-69
2022/04/21 13:22:13;;;;;;;3.88;3.55;;;;;;;;;;12661703;23;20180;-70
2022/04/21 13:27:16;;;;;;;5.40;3.88;;;;;;;;;;12662966;23;20196;-69
2022/04/21 13:37:36;;;;;;;5.65;4.20;;;;;;;;;;12657615;23;20196;-70
2022/04/21 13:42:38;;;;;;;7.20;4.25;;;;;;;;;;12658136;23;20215;-70
2022/04/21 13:47:39;;;;;;;7.22;4.13;;;;;;;;;;12660905;23;20645;-70
2022/04/21 13:52:41;;;;;;;6.97;4.20;;;;;;;;;;12661866;23;20439;-69
2022/04/21 13:57:42;;;;;;;8.27;4.32;;;;;;;;;;12633479;23;20205;-70
2022/04/21 14:02:43;;;;;;;5.90;4.30;;;;;;;;;;12655372;23;20353;-69
2022/04/21 14:07:45;;;;;;;6.85;4.45;;;;;;;;;;12659881;23;20298;-69
2022/04/21 14:12:46;;;;;;;4.63;4.22;;;;;;;;;;12655996;23;20561;-69
2022/04/21 14:17:47;;;;;;;9.27;4.90;;;;;;;;;;12661360;23;20226;-69
2022/04/21 14:22:48;;;;;;;7.57;6.78;;;;;;;;;;12657521;23;20185;-70
2022/04/21 14:27:49;;;;;;;13.10;6.97;;;;;;;;;;12662281;23;20185;-72
2022/04/21 14:32:51;;;;;;;8.07;6.75;;;;;;;;;;12658862;23;20434;-71
2022/04/21 14:48:32;;;;;;;8.18;6.88;;;;;;;;;;12659680;23;20303;-68
2022/04/21 14:53:33;;;;;;;10.25;7.72;;;;;;;;;;12658464;23;20518;-70
2022/04/21 14:58:34;;;;;;;10.30;7.90;;;;;;;;;;12654987;23;20201;-70
2022/04/21 15:03:37;;;;;;;8.02;7.18;;;;;;;;;;12657182;23;20831;-70
2022/04/21 15:08:38;;;;;;;17.17;13.60;;;;;;;;;;12658736;23;20192;-70
2022/04/21 15:13:40;;;;;;;11.60;9.73;;;;;;;;;;12659670;23;20212;-69
2022/04/21 15:18:41;;;;;;;10.05;8.85;;;;;;;;;;12661252;23;20192;-69
2022/04/21 15:23:42;;;;;;;13.32;10.02;;;;;;;;;;12662880;23;20243;-70
2022/04/21 15:28:43;;;;;;;10.82;9.63;;;;;;;;;;12639865;23;20190;-70
2022/04/21 15:33:44;;;;;;;12.02;10.00;;;;;;;;;;12624620;23;20212;-70
2022/04/21 15:38:48;;;;;;;12.07;10.57;;;;;;;;;;12661000;23;20196;-69
2022/04/21 15:43:50;;;;;;;12.82;10.23;;;;;;;;;;12661314;23;20697;-70
2022/04/21 15:48:51;;;;;;;13.65;10.40;;;;;;;;;;12661768;23;20185;-69
2022/04/21 15:59:12;;;;;;;13.02;10.30;;;;;;;;;;12653241;23;20542;-70
2022/04/21 16:04:13;;;;;;;11.10;10.00;;;;;;;;;;12632374;23;20204;-70
2022/04/21 16:09:14;;;;;;;11.48;9.93;;;;;;;;;;12661201;23;20268;-69
2022/04/21 16:14:15;;;;;;;11.18;9.70;;;;;;;;;;12662877;23;20181;-69
2022/04/21 16:19:16;;;;;;;10.60;9.60;;;;;;;;;;12663085;23;20193;-68
2022/04/21 16:24:17;;;;;;;13.65;9.32;;;;;;;;;;12650594;23;20243;-68
2022/04/21 16:29:18;;;;;;;10.23;9.30;;;;;;;;;;12663860;23;20248;-68
2022/04/21 16:34:19;;;;;;;11.85;9.63;;;;;;;;;;12661474;23;20197;-69
2022/04/21 16:39:20;;;;;;;10.15;9.30;;;;;;;;;;12662583;23;20201;-69
2022/04/21 16:44:21;;;;;;;10.90;8.73;;;;;;;;;;12660520;23;20200;-69
2022/04/21 16:49:24;;;;;;;8.98;8.15;;;;;;;;;;12652994;23;20181;-69
2022/04/21 16:54:26;;;;;;;8.98;8.10;;;;;;;;;;12657590;23;20181;-68
2022/04/21 16:59:27;;;;;;;8.32;7.63;;;;;;;;;;12661572;23;20205;-69
2022/04/21 17:04:28;;;;;;;9.32;8.20;;;;;;;;;;12658869;23;20296;-69
2022/04/21 17:09:29;;;;;;;8.90;8.13;;;;;;;;;;12659984;23;20189;-68
2022/04/21 17:14:30;;;;;;;8.73;7.88;;;;;;;;;;12657991;23;20259;-68
2022/04/21 17:19:31;;;;;;;8.95;8.27;;;;;;;;;;12646940;23;20279;-66
2022/04/21 17:24:32;;;;;;;10.48;9.50;;;;;;;;;;12654930;23;20627;-68
2022/04/21 17:29:33;;;;;;;10.48;9.50;;;;;;;;;;12657148;23;20671;-68
2022/04/21 17:34:35;;;;;;;18.13;10.25;;;;;;;;;;12653247;23;20220;-69
2022/04/21 17:39:36;;;;;;;12.68;11.50;;;;;;;;;;12655957;23;20702;-69
2022/04/21 17:44:38;;;;;;;12.38;11.38;;;;;;;;;;12640130;23;20205;-70
2022/04/21 17:49:39;;;;;;;17.90;13.40;;;;;;;;;;12649519;23;20214;-69
2022/04/21 17:54:40;;;;;;;14.73;12.48;;;;;;;;;;12660595;23;20713;-69
2022/04/21 17:59:41;;;;;;;20.90;13.05;;;;;;;;;;12658475;23;20596;-69
2022/04/21 18:04:42;;;;;;;15.38;13.88;;;;;;;;;;12654062;23;20208;-70
2022/04/21 18:09:43;;;;;;;17.23;14.13;;;;;;;;;;12660927;23;20247;-70
2022/04/21 18:14:46;;;;;;;15.77;14.13;;;;;;;;;;12647634;23;20184;-69
2022/04/21 18:19:47;;;;;;;16.20;14.23;;;;;;;;;;12657164;23;20188;-69
2022/04/21 18:24:49;;;;;;;15.25;13.82;;;;;;;;;;12658540;23;20187;-69
2022/04/21 18:29:50;;;;;;;16.48;14.88;;;;;;;;;;12658459;23;20177;-70
2022/04/21 18:34:52;;;;;;;18.90;14.52;;;;;;;;;;12658857;23;20672;-69
2022/04/21 18:39:53;;;;;;;16.08;14.43;;;;;;;;;;12658847;23;20201;-70
2022/04/21 18:44:55;;;;;;;17.75;14.93;;;;;;;;;;12657599;23;20201;-70
2022/04/21 18:49:56;;;;;;;18.38;15.05;;;;;;;;;;12659218;23;20184;-70
2022/04/21 18:54:58;;;;;;;17.10;15.38;;;;;;;;;;12632073;23;20188;-70
2022/04/21 18:59:59;;;;;;;15.40;13.85;;;;;;;;;;12658514;23;20197;-69
2022/04/21 19:05:00;;;;;;;17.15;14.27;;;;;;;;;;12655185;23;20201;-70
2022/04/21 19:10:01;;;;;;;17.70;15.85;;;;;;;;;;12658694;23;20231;-71
2022/04/21 19:15:02;;;;;;;21.10;15.93;;;;;;;;;;12659546;23;20187;-69
2022/04/21 19:20:08;;;;;;;20.67;17.45;;;;;;;;;;12656103;23;20631;-69
2022/04/21 19:25:09;;;;;;;20.27;17.35;;;;;;;;;;12658657;23;20248;-70
2022/04/21 19:30:11;;;;;;;20.63;16.60;;;;;;;;;;12658575;23;20184;-70
2022/04/21 19:35:15;;;;;;;20.20;17.13;;;;;;;;;;12658671;23;20520;-69
2022/04/21 19:40:16;;;;;;;23.90;18.15;;;;;;;;;;12663672;23;20199;-69
2022/04/21 19:45:17;;;;;;;19.50;17.50;;;;;;;;;;12608831;23;20190;-70
2022/04/21 19:50:21;;;;;;;19.52;17.23;;;;;;;;;;12607711;23;20190;-70
2022/04/21 19:55:22;;;;;;;18.38;16.48;;;;;;;;;;12607011;23;20220;-70
2022/04/21 20:00:23;;;;;;;18.60;16.70;;;;;;;;;;12606546;23;20202;-69
2022/04/21 20:10:44;;;;;;;20.10;18.00;;;;;;;;;;12608022;23;20207;-70
2022/04/21 20:15:46;;;;;;;22.95;19.98;;;;;;;;;;12603710;23;20182;-70
2022/04/21 20:31:27;;;;;;;25.88;20.23;;;;;;;;;;12603988;23;21052;-69
2022/04/21 20:36:29;;;;;;;25.80;19.83;;;;;;;;;;12605812;23;20185;-69
2022/04/21 20:41:30;;;;;;;25.45;20.65;;;;;;;;;;12616530;23;20204;-70
2022/04/21 20:46:31;;;;;;;24.25;20.75;;;;;;;;;;12663506;23;20517;-69
2022/04/21 20:51:32;;;;;;;25.38;18.95;;;;;;;;;;12663235;23;20176;-70
2022/04/21 20:56:33;;;;;;;24.10;20.30;;;;;;;;;;12685292;23;20635;-70
2022/04/21 21:01:34;;;;;;;27.45;20.33;;;;;;;;;;12661913;23;20216;-69
2022/04/21 21:11:55;;;;;;;23.15;20.08;;;;;;;;;;12658207;23;20181;-69
2022/04/21 21:16:56;;;;;;;21.00;18.30;;;;;;;;;;12657562;23;20177;-69
2022/04/21 21:21:58;;;;;;;27.02;20.77;;;;;;;;;;12662343;23;20197;-70
2022/04/21 21:26:59;;;;;;;24.70;21.50;;;;;;;;;;12661426;23;20577;-69
2022/04/21 21:32:00;;;;;;;23.20;20.60;;;;;;;;;;12660475;23;20236;-70
2022/04/21 21:37:01;;;;;;;27.30;20.35;;;;;;;;;;12658421;23;20235;-69
2022/04/21 21:42:02;;;;;;;20.67;18.48;;;;;;;;;;12659632;23;20197;-70
2022/04/21 21:47:03;;;;;;;20.60;18.27;;;;;;;;;;12682763;23;20184;-69
2022/04/21 21:57:25;;;;;;;19.80;17.45;;;;;;;;;;12660351;23;20218;-69
2022/04/21 22:02:26;;;;;;;26.70;20.85;;;;;;;;;;12658989;23;20201;-69
2022/04/21 22:07:27;;;;;;;21.15;17.92;;;;;;;;;;12661429;23;20639;-69
2022/04/21 22:12:28;;;;;;;25.83;19.70;;;;;;;;;;12659382;23;20176;-69
2022/04/21 22:17:29;;;;;;;22.65;19.42;;;;;;;;;;12661244;23;20902;-69
2022/04/21 22:22:30;;;;;;;22.83;19.15;;;;;;;;;;12661463;23;20506;-69
2022/04/21 22:27:31;;;;;;;24.92;19.35;;;;;;;;;;12684355;23;20207;-69
2022/04/21 22:32:32;;;;;;;22.02;19.48;;;;;;;;;;12660686;23;20215;-69
2022/04/21 22:37:33;;;;;;;25.95;21.02;;;;;;;;;;12662139;23;20386;-69
2022/04/21 22:42:35;;;;;;;29.27;23.05;;;;;;;;;;12659893;23;20196;-69
2022/04/21 22:47:36;;;;;;;28.88;23.45;;;;;;;;;;12661189;23;20187;-69
2022/04/21 22:52:40;;;;;;;28.00;22.30;;;;;;;;;;12656989;23;20204;-69
2022/04/21 22:57:41;;;;;;;28.83;22.02;;;;;;;;;;12658549;23;20196;-69
2022/04/21 23:02:43;;;;;;;28.02;22.65;;;;;;;;;;12659930;23;20641;-69
2022/04/21 23:07:44;;;;;;;29.40;22.20;;;;;;;;;;12659576;23;20280;-69
2022/04/21 23:18:06;;;;;;;28.67;19.90;;;;;;;;;;12657824;23;20665;-69
2022/04/21 23:23:07;;;;;;;31.00;21.20;;;;;;;;;;12660926;23;20659;-68
2022/04/21 23:28:08;;;;;;;29.40;22.65;;;;;;;;;;12660372;23;20193;-69
2022/04/21 23:33:09;;;;;;;27.73;21.90;;;;;;;;;;12659155;23;20280;-69
2022/04/21 23:38:28;;;;;;;32.10;21.13;;;;;;;;;;12663367;23;20192;-68
2022/04/21 23:43:30;;;;;;;29.02;21.77;;;;;;;;;;12657370;23;20647;-68
2022/04/21 23:48:31;;;;;;;23.45;19.60;;;;;;;;;;12663140;23;20173;-68
2022/04/21 23:53:32;;;;;;;23.20;19.25;;;;;;;;;;12664051;23;20181;-67
2022/04/21 23:58:33;;;;;;;23.10;19.02;;;;;;;;;;12661909;23;20192;-69
